Terminal Aerodrome Forecast
Issued by NWS Duluth, MN

Home | Current Version | Previous Version | Text Only | Print | Product List | Glossary On
Versions: 1 2 3 4 5 6 7 8 9 10 11 12 13 14 15 16 17 18 19 20 21 22 23
000
FTUS43 KDLH 281700 AAB
TAFDLH
TAF AMD
KDLH 281700Z 2817/2912 20016G25KT P6SM SCT020 BKN120
     FM282100 21014G24KT P6SM VCTS BKN040CB
      TEMPO 2822/2901 -TSRA SCT025 BKN040CB
     FM290100 22014G21KT P6SM FEW050
     FM290500 25013KT P6SM SKC=

USA.gov is the U.S. government's official web portal to all federal, state and local government web resources and services.